createdAt,value
2018-11-11T00:00:15.163Z,100372.30
2018-11-11T00:02:44.126Z,100373.52
2018-11-11T00:05:13.163Z,100376.42
2018-11-11T00:07:42.454Z,100376.30
2018-11-11T00:10:11.386Z,100370.84
2018-11-11T00:12:40.677Z,100377.56
2018-11-11T00:15:12.074Z,100373.73
2018-11-11T00:17:42.060Z,100380.16
2018-11-11T00:20:11.937Z,100373.17
2018-11-11T00:22:41.364Z,100368.94
2018-11-11T00:25:10.389Z,100375.11
2018-11-11T00:27:40.090Z,100371.52
2018-11-11T00:30:11.292Z,100372.48
2018-11-11T00:32:40.461Z,100370.80
2018-11-11T00:35:09.874Z,100372.05
2018-11-11T00:37:38.956Z,100372.53
2018-11-11T00:40:08.183Z,100380.03
2018-11-11T00:42:37.182Z,100370.71
2018-11-11T00:45:06.563Z,100371.44
2018-11-11T00:47:35.498Z,100369.37
2018-11-11T00:50:04.691Z,100375.43
2018-11-11T00:52:33.660Z,100376.40
2018-11-11T00:55:02.588Z,100371.11
2018-11-11T00:57:31.610Z,100366.75
2018-11-11T01:00:00.568Z,100365.78
2018-11-11T01:02:29.522Z,100369.78
2018-11-11T01:04:58.478Z,100362.52
2018-11-11T01:07:27.434Z,100367.15
2018-11-11T01:09:56.418Z,100368.11
2018-11-11T01:12:25.439Z,100367.75
2018-11-11T01:14:54.372Z,100368.36
2018-11-11T01:17:23.290Z,100374.53
2018-11-11T01:19:52.273Z,100371.86
2018-11-11T01:22:21.226Z,100373.56
2018-11-11T01:24:50.194Z,100370.53
2018-11-11T01:27:19.140Z,100370.05
2018-11-11T01:29:48.075Z,100371.89
2018-11-11T01:32:17.122Z,100368.77
2018-11-11T01:34:46.066Z,100374.80
2018-11-11T01:37:15.059Z,100373.83
2018-11-11T01:39:43.982Z,100377.00
2018-11-11T01:42:12.935Z,100378.56
2018-11-11T01:44:41.870Z,100371.55
2018-11-11T01:47:10.802Z,100373.73
2018-11-11T01:49:39.747Z,100375.45
2018-11-11T01:52:08.684Z,100372.42
2018-11-11T01:54:37.674Z,100375.31
2018-11-11T01:57:06.632Z,100377.98
2018-11-11T01:59:35.584Z,100379.91
2018-11-11T02:02:04.534Z,100380.06
2018-11-11T02:04:33.491Z,100377.52
2018-11-11T02:07:02.449Z,100379.56
2018-11-11T02:09:31.450Z,100386.36
2018-11-11T02:12:00.390Z,100384.89
2018-11-11T02:14:29.363Z,100388.30
2018-11-11T02:16:58.377Z,100383.95
2018-11-11T02:19:27.347Z,100390.94
2018-11-11T02:21:56.279Z,100395.05
2018-11-11T02:24:25.281Z,100393.50
2018-11-11T02:26:54.215Z,100390.82
2018-11-11T02:29:23.151Z,100393.75
2018-11-11T02:31:52.117Z,100395.44
2018-11-11T02:34:21.130Z,100401.95
2018-11-11T02:36:50.050Z,100399.53
2018-11-11T02:39:19.023Z,100399.30
2018-11-11T02:41:47.986Z,100401.36
2018-11-11T02:44:16.952Z,100406.05
2018-11-11T02:46:45.927Z,100406.55
2018-11-11T02:49:14.881Z,100410.16
2018-11-11T02:51:43.879Z,100410.55
2018-11-11T02:54:12.910Z,100412.81
2018-11-11T02:56:41.858Z,100413.78
2018-11-11T02:59:10.814Z,100417.06
2018-11-11T03:01:39.769Z,100419.72
2018-11-11T03:04:08.774Z,100421.75
2018-11-11T03:06:37.727Z,100420.42
2018-11-11T03:09:10.366Z,100415.73
2018-11-11T03:11:39.406Z,100415.96
2018-11-11T03:14:08.485Z,100415.45
2018-11-11T03:16:37.530Z,100418.38
2018-11-11T03:19:07.432Z,100417.16
2018-11-11T03:21:36.374Z,100422.11
2018-11-11T03:24:05.542Z,100417.39
2018-11-11T03:26:34.549Z,100418.20
2018-11-11T03:29:03.496Z,100422.19
2018-11-11T03:31:32.491Z,100423.41
2018-11-11T03:34:01.450Z,100424.37
2018-11-11T03:36:30.383Z,100419.91
2018-11-11T03:38:59.342Z,100426.77
2018-11-11T03:41:28.271Z,100428.09
2018-11-11T03:43:57.215Z,100424.33
2018-11-11T03:46:26.166Z,100426.87
2018-11-11T03:48:55.111Z,100431.67
2018-11-11T03:51:24.043Z,100427.21
2018-11-11T03:53:53.060Z,100429.28
2018-11-11T03:56:22.019Z,100433.16
2018-11-11T03:58:51.160Z,100431.94
2018-11-11T04:01:20.095Z,100430.61
2018-11-11T04:03:49.102Z,100435.33
2018-11-11T04:06:18.038Z,100429.75
2018-11-11T04:08:47.267Z,100423.23
2018-11-11T04:11:16.256Z,100421.67
2018-11-11T04:13:45.170Z,100412.27
2018-11-11T04:16:14.130Z,100426.03
2018-11-11T04:18:43.082Z,100427.47
2018-11-11T04:21:12.065Z,100432.52
2018-11-11T04:23:41.047Z,100439.79
2018-11-11T04:26:10.004Z,100436.98
2018-11-11T04:28:38.980Z,100445.80
2018-11-11T04:31:08.043Z,100446.80
2018-11-11T04:33:37.058Z,100451.59
2018-11-11T04:36:06.124Z,100453.14
2018-11-11T04:38:35.046Z,100457.86
2018-11-11T04:41:04.011Z,100460.63
2018-11-11T04:43:32.935Z,100456.00
2018-11-11T04:46:01.873Z,100464.18
2018-11-11T04:48:30.814Z,100463.00
2018-11-11T04:50:59.823Z,100469.39
2018-11-11T04:53:28.781Z,100474.58
2018-11-11T04:55:57.753Z,100468.80
2018-11-11T04:58:26.794Z,100478.04
2018-11-11T05:00:55.724Z,100475.05
2018-11-11T05:03:24.691Z,100479.37
2018-11-11T05:05:53.659Z,100481.17
2018-11-11T05:08:22.626Z,100483.14
2018-11-11T05:10:51.552Z,100481.44
2018-11-11T05:13:20.564Z,100481.06
2018-11-11T05:15:49.506Z,100485.95
2018-11-11T05:18:18.426Z,100493.08
2018-11-11T05:20:47.353Z,100499.18
2018-11-11T05:23:16.358Z,100497.38
2018-11-11T05:25:45.318Z,100500.68
2018-11-11T05:28:14.357Z,100503.38
2018-11-11T05:30:43.382Z,100504.60
2018-11-11T05:33:12.282Z,100514.42
2018-11-11T05:35:41.311Z,100522.69
2018-11-11T05:38:10.270Z,100513.18
2018-11-11T05:40:39.222Z,100517.04
2018-11-11T05:43:08.162Z,100520.81
2018-11-11T05:45:37.095Z,100518.37
2018-11-11T05:48:06.051Z,100522.98
2018-11-11T05:50:34.998Z,100523.58
2018-11-11T05:53:04.001Z,100527.57
2018-11-11T05:55:32.973Z,100528.98
2018-11-11T05:58:01.941Z,100533.81
2018-11-11T06:00:30.933Z,100537.84
2018-11-11T06:02:59.874Z,100545.20
2018-11-11T06:05:28.852Z,100545.89
2018-11-11T06:07:57.798Z,100539.98
2018-11-11T06:10:26.738Z,100539.66
2018-11-11T06:12:55.690Z,100537.41
2018-11-11T06:15:24.666Z,100539.50
2018-11-11T06:17:53.582Z,100541.20
2018-11-11T06:20:22.529Z,100543.23
2018-11-11T06:22:51.545Z,100552.47
2018-11-11T06:25:20.511Z,100550.45
2018-11-11T06:27:49.467Z,100548.83
2018-11-11T06:30:18.404Z,100558.92
2018-11-11T06:32:47.390Z,100559.09
2018-11-11T06:35:16.328Z,100566.22
2018-11-11T06:37:45.273Z,100570.46
2018-11-11T06:40:14.540Z,100572.16
2018-11-11T06:42:43.698Z,100565.83
2018-11-11T06:45:14.070Z,100570.15
2018-11-11T06:47:43.784Z,100570.98
2018-11-11T06:50:13.763Z,100578.47
2018-11-11T06:52:43.277Z,100584.49
2018-11-11T06:55:12.515Z,100579.31
2018-11-11T06:57:41.515Z,100585.66
2018-11-11T07:00:12.934Z,100588.97
2018-11-11T07:02:51.773Z,100590.06
2018-11-11T07:05:20.724Z,100589.89
2018-11-11T07:07:49.691Z,100591.94
2018-11-11T07:10:18.634Z,100590.75
2018-11-11T07:12:47.575Z,100597.03
2018-11-11T07:15:16.520Z,100597.88
2018-11-11T07:17:45.529Z,100601.25
2018-11-11T07:20:14.451Z,100600.13
2018-11-11T07:22:43.476Z,100607.08
2018-11-11T07:25:12.731Z,100604.13
2018-11-11T07:27:41.679Z,100607.89
2018-11-11T07:30:10.665Z,100603.05
2018-11-11T07:32:39.595Z,100605.47
2018-11-11T07:35:09.669Z,100606.11
2018-11-11T07:37:38.599Z,100604.91
2018-11-11T07:40:09.870Z,100607.04
2018-11-11T07:42:38.897Z,100609.56
2018-11-11T07:45:07.866Z,100607.70
2018-11-11T07:47:36.995Z,100609.59
2018-11-11T07:50:07.383Z,100604.74
2018-11-11T07:52:36.562Z,100609.89
2018-11-11T07:55:06.046Z,100604.08
2018-11-11T07:57:34.951Z,100604.64
2018-11-11T08:00:03.907Z,100599.81
2018-11-11T08:02:32.853Z,100602.00
2018-11-11T08:05:01.848Z,100603.20
2018-11-11T08:07:30.799Z,100602.39
2018-11-11T08:09:59.772Z,100606.98
2018-11-11T08:12:28.747Z,100604.48
2018-11-11T08:14:57.746Z,100607.55
2018-11-11T08:17:26.691Z,100601.12
2018-11-11T08:19:55.698Z,100597.03
2018-11-11T08:22:24.656Z,100603.37
2018-11-11T08:24:53.657Z,100604.32
2018-11-11T08:27:22.609Z,100611.06
2018-11-11T08:29:51.574Z,100611.37
2018-11-11T08:32:20.695Z,100599.81
2018-11-11T08:34:49.540Z,100598.98
2018-11-11T08:37:18.544Z,100602.55
2018-11-11T08:39:47.542Z,100602.50
2018-11-11T08:42:16.475Z,100604.52
2018-11-11T08:44:45.452Z,100598.22
2018-11-11T08:47:14.399Z,100603.80
2018-11-11T08:49:43.410Z,100601.61
2018-11-11T08:52:12.364Z,100597.89
2018-11-11T08:54:41.355Z,100599.39
2018-11-11T08:57:10.370Z,100597.58
2018-11-11T08:59:39.477Z,100589.02
2018-11-11T09:02:08.460Z,100566.36
2018-11-11T09:04:37.499Z,100587.96
2018-11-11T09:07:06.994Z,100590.63
2018-11-11T09:09:35.978Z,100595.25
2018-11-11T09:12:04.996Z,100596.28
2018-11-11T09:14:33.966Z,100597.50
2018-11-11T09:17:02.973Z,100590.21
2018-11-11T09:19:31.923Z,100590.79
2018-11-11T09:22:00.866Z,100594.05
2018-11-11T09:24:29.862Z,100599.70
2018-11-11T09:26:58.838Z,100593.22
2018-11-11T09:29:27.821Z,100587.39
2018-11-11T09:31:56.820Z,100592.27
2018-11-11T09:34:25.802Z,100589.16
2018-11-11T09:36:54.801Z,100587.86
2018-11-11T09:39:23.824Z,100584.59
2018-11-11T09:41:52.790Z,100581.50
2018-11-11T09:44:21.719Z,100582.77
2018-11-11T09:46:50.664Z,100580.16
2018-11-11T09:49:19.611Z,100580.75
2018-11-11T09:51:48.567Z,100575.17
2018-11-11T09:54:17.625Z,100580.63
2018-11-11T09:56:46.560Z,100574.54
2018-11-11T09:59:15.517Z,100574.14
2018-11-11T10:01:44.783Z,100574.89
2018-11-11T10:04:17.920Z,100574.93
2018-11-11T10:06:58.646Z,100566.83
2018-11-11T10:11:36.218Z,100565.52
2018-11-11T10:14:19.041Z,100568.84
2018-11-11T10:16:52.416Z,100570.38
2018-11-11T10:19:29.750Z,100558.72
2018-11-11T10:22:03.833Z,100562.39
2018-11-11T10:24:38.799Z,100564.42
2018-11-11T10:27:13.862Z,100561.09
2018-11-11T10:29:47.917Z,100559.96
2018-11-11T10:32:32.349Z,100560.63
2018-11-11T10:35:05.068Z,100556.92
2018-11-11T10:37:42.492Z,100553.42
2018-11-11T10:40:16.516Z,100549.98
2018-11-11T10:42:55.974Z,100550.02
2018-11-11T10:45:31.934Z,100541.94
2018-11-11T10:48:05.791Z,100547.75
2018-11-11T10:50:44.304Z,100543.56
2018-11-11T10:53:13.266Z,100538.22
2018-11-11T10:55:42.216Z,100536.54
2018-11-11T10:58:11.209Z,100540.56
2018-11-11T11:00:45.226Z,100535.56
2018-11-11T11:03:19.119Z,100543.75
2018-11-11T11:05:48.079Z,100539.36
2018-11-11T11:08:17.089Z,100535.42
2018-11-11T11:10:46.064Z,100535.45
2018-11-11T11:13:15.053Z,100527.12
2018-11-11T11:15:44.053Z,100531.19
2018-11-11T11:18:13.133Z,100533.77
2018-11-11T11:20:42.090Z,100528.20
2018-11-11T11:23:11.098Z,100529.27
2018-11-11T11:25:40.164Z,100522.44
2018-11-11T11:28:09.117Z,100517.21
2018-11-11T11:30:38.083Z,100523.19
2018-11-11T11:33:07.077Z,100522.34
2018-11-11T11:35:36.229Z,100518.27
2018-11-11T11:38:05.579Z,100515.84
2018-11-11T11:40:34.535Z,100513.22
2018-11-11T11:43:03.531Z,100515.00
2018-11-11T11:45:32.471Z,100523.11
2018-11-11T11:48:01.418Z,100520.65
2018-11-11T11:50:30.422Z,100520.28
2018-11-11T11:52:59.417Z,100520.95
2018-11-11T11:55:28.339Z,100521.63
2018-11-11T11:58:08.395Z,100527.38
2018-11-11T12:00:37.295Z,100523.77
2018-11-11T12:03:06.258Z,100528.89
2018-11-11T12:05:35.220Z,100530.56
2018-11-11T12:08:04.144Z,100531.36
2018-11-11T12:10:33.137Z,100533.88
2018-11-11T12:13:02.093Z,100532.27
2018-11-11T12:15:31.181Z,100535.94
2018-11-11T12:18:00.108Z,100534.46
2018-11-11T12:20:29.056Z,100536.86
2018-11-11T12:22:59.170Z,100536.08
2018-11-11T12:25:28.148Z,100533.73
2018-11-11T12:27:57.567Z,100534.45
2018-11-11T12:30:26.653Z,100539.69
2018-11-11T12:32:55.702Z,100541.34
2018-11-11T12:35:24.726Z,100543.41
2018-11-11T12:37:53.701Z,100546.00
2018-11-11T12:40:22.646Z,100548.38
2018-11-11T12:42:51.586Z,100549.88
2018-11-11T12:45:20.571Z,100547.16
2018-11-11T12:47:50.131Z,100547.55
2018-11-11T12:50:19.176Z,100542.92
2018-11-11T12:52:48.055Z,100546.67
2018-11-11T12:55:17.091Z,100550.75
2018-11-11T12:57:46.037Z,100547.45
2018-11-11T13:00:15.675Z,100541.25
2018-11-11T13:02:44.626Z,100547.12
2018-11-11T13:05:13.568Z,100544.31
2018-11-11T13:07:42.537Z,100543.05
2018-11-11T13:10:13.642Z,100541.38
2018-11-11T13:12:42.920Z,100540.82
2018-11-11T13:15:13.243Z,100543.53
2018-11-11T13:17:42.579Z,100545.23
2018-11-11T13:20:16.666Z,100548.23
2018-11-11T13:22:45.703Z,100544.03
2018-11-11T13:25:15.336Z,100541.89
2018-11-11T13:27:44.398Z,100537.27
2018-11-11T13:30:14.523Z,100543.06
2018-11-11T13:32:43.469Z,100550.31
2018-11-11T13:35:14.257Z,100555.50
2018-11-11T13:37:43.253Z,100546.20
2018-11-11T13:40:14.684Z,100550.73
2018-11-11T13:42:43.614Z,100551.67
2018-11-11T13:45:15.222Z,100554.33
2018-11-11T13:47:45.331Z,100552.00
2018-11-11T13:50:16.850Z,100552.80
2018-11-11T13:52:46.498Z,100554.42
2018-11-11T13:55:15.981Z,100555.20
2018-11-11T13:57:45.764Z,100556.42
2018-11-11T14:00:18.644Z,100558.80
2018-11-11T14:02:47.665Z,100549.77
2018-11-11T14:05:16.622Z,100549.05
2018-11-11T14:07:45.687Z,100547.27
2018-11-11T14:10:15.042Z,100546.18
2018-11-11T14:12:44.048Z,100552.88
2018-11-11T14:15:18.136Z,100557.97
2018-11-11T14:17:47.753Z,100554.39
2018-11-11T14:20:17.882Z,100555.84
2018-11-11T14:22:47.726Z,100551.45
2018-11-11T14:25:20.433Z,100552.59
2018-11-11T14:27:49.390Z,100551.34
2018-11-11T14:30:23.836Z,100549.39
2018-11-11T14:32:53.654Z,100548.10
2018-11-11T14:35:22.632Z,100550.36
2018-11-11T14:37:51.960Z,100552.37
2018-11-11T14:40:22.224Z,100553.09
2018-11-11T14:42:51.185Z,100550.83
2018-11-11T14:45:20.747Z,100546.43
2018-11-11T14:47:50.909Z,100546.02
2018-11-11T14:50:20.655Z,100549.37
2018-11-11T14:52:49.686Z,100550.86
2018-11-11T14:55:23.702Z,100556.56
2018-11-11T14:57:52.749Z,100562.31
2018-11-11T15:00:31.646Z,100563.71
2018-11-11T15:03:10.999Z,100561.93
2018-11-11T15:05:39.960Z,100565.86
2018-11-11T15:08:09.097Z,100572.65
2018-11-11T15:10:38.268Z,100574.73
2018-11-11T15:13:08.011Z,100566.37
2018-11-11T15:15:37.024Z,100575.34
2018-11-11T15:18:06.258Z,100580.92
2018-11-11T15:20:35.618Z,100583.13
2018-11-11T15:23:04.627Z,100584.61
2018-11-11T15:25:33.592Z,100591.69
2018-11-11T15:28:02.570Z,100595.05
2018-11-11T15:30:32.865Z,100602.25
2018-11-11T15:33:02.355Z,100606.13
2018-11-11T15:35:31.358Z,100578.11
2018-11-11T15:38:00.315Z,100618.52
2018-11-11T15:40:30.652Z,100623.19
2018-11-11T15:42:59.802Z,100624.63
2018-11-11T15:45:31.059Z,100629.63
2018-11-11T15:48:00.373Z,100628.72
2018-11-11T15:50:30.542Z,100637.59
2018-11-11T15:53:01.919Z,100635.31
2018-11-11T15:55:32.146Z,100636.81
2018-11-11T15:58:01.197Z,100643.98
2018-11-11T16:00:32.553Z,100644.28
2018-11-11T16:03:01.487Z,100643.87
2018-11-11T16:05:30.421Z,100650.51
2018-11-11T16:08:00.233Z,100649.30
2018-11-11T16:10:30.446Z,100659.50
2018-11-11T16:12:59.402Z,100655.76
2018-11-11T16:15:43.254Z,100660.06
2018-11-11T16:18:13.407Z,100660.31
2018-11-11T16:20:42.413Z,100659.30
2018-11-11T16:23:11.643Z,100661.29
2018-11-11T16:25:40.744Z,100660.59
2018-11-11T16:28:09.691Z,100661.91
2018-11-11T16:30:39.195Z,100663.91
2018-11-11T16:33:09.449Z,100659.81
2018-11-11T16:35:38.457Z,100666.52
2018-11-11T16:38:07.627Z,100671.62
2018-11-11T16:40:37.587Z,100676.41
2018-11-11T16:43:06.591Z,100670.31
2018-11-11T16:45:36.306Z,100680.64
2018-11-11T16:48:05.631Z,100677.87
2018-11-11T16:50:35.558Z,100680.45
2018-11-11T16:53:06.699Z,100682.09
2018-11-11T16:55:36.628Z,100684.42
2018-11-11T16:58:05.579Z,100687.07
2018-11-11T17:00:36.005Z,100686.02
2018-11-11T17:03:05.908Z,100685.28
2018-11-11T17:05:36.066Z,100688.24
2018-11-11T17:08:05.085Z,100684.33
2018-11-11T17:10:35.379Z,100685.45
2018-11-11T17:13:06.164Z,100689.84
2018-11-11T17:15:35.294Z,100692.77
2018-11-11T17:18:04.249Z,100693.05
2018-11-11T17:20:33.271Z,100687.61
2018-11-11T17:23:03.917Z,100685.88
2018-11-11T17:25:32.946Z,100692.86
2018-11-11T17:28:01.968Z,100686.12
2018-11-11T17:30:32.221Z,100692.12
2018-11-11T17:33:01.955Z,100690.03
2018-11-11T17:35:30.885Z,100695.67
2018-11-11T17:37:59.864Z,100693.98
2018-11-11T17:40:30.047Z,100702.30
2018-11-11T17:42:59.690Z,100700.60
2018-11-11T17:45:28.660Z,100704.22
2018-11-11T17:47:57.998Z,100712.19
2018-11-11T17:50:28.335Z,100702.77
2018-11-11T17:52:57.538Z,100711.92
2018-11-11T17:55:27.284Z,100717.34
2018-11-11T17:57:56.221Z,100724.03
2018-11-11T18:00:26.384Z,100722.70
2018-11-11T18:02:55.972Z,100721.00
2018-11-11T18:05:26.278Z,100719.23
2018-11-11T18:07:55.250Z,100722.56
2018-11-11T18:10:25.079Z,100731.23
2018-11-11T18:12:54.006Z,100726.42
2018-11-11T18:15:24.632Z,100724.05
2018-11-11T18:17:53.574Z,100726.09
2018-11-11T18:20:24.019Z,100731.09
2018-11-11T18:22:53.768Z,100729.53
2018-11-11T18:25:22.792Z,100734.89
2018-11-11T18:27:52.349Z,100734.27
2018-11-11T18:30:37.119Z,100732.92
2018-11-11T18:33:06.407Z,100730.30
2018-11-11T18:35:35.382Z,100732.44
2018-11-11T18:38:04.397Z,100724.94
2018-11-11T18:40:33.339Z,100731.77
2018-11-11T18:43:02.302Z,100732.92
2018-11-11T18:45:31.533Z,100737.63
2018-11-11T18:48:00.575Z,100742.66
2018-11-11T18:50:30.818Z,100744.62
2018-11-11T18:52:59.854Z,100742.84
2018-11-11T18:55:28.762Z,100742.97
2018-11-11T18:57:57.791Z,100742.78
2018-11-11T19:00:29.020Z,100746.70
2018-11-11T19:02:58.372Z,100750.58
2018-11-11T19:05:27.813Z,100711.94
2018-11-11T19:07:57.060Z,100765.22
2018-11-11T19:10:27.426Z,100767.64
2018-11-11T19:12:57.864Z,100777.01
2018-11-11T19:15:26.815Z,100775.03
2018-11-11T19:17:55.824Z,100774.58
2018-11-11T19:20:25.845Z,100768.09
2018-11-11T19:22:54.971Z,100773.64
2018-11-11T19:25:25.334Z,100774.20
2018-11-11T19:27:54.919Z,100776.78
2018-11-11T19:30:25.295Z,100779.03
2018-11-11T19:32:54.542Z,100780.27
2018-11-11T19:35:23.504Z,100777.40
2018-11-11T19:37:53.815Z,100777.40
2018-11-11T19:40:24.110Z,100782.75
2018-11-11T19:42:53.929Z,100778.86
2018-11-11T19:45:24.405Z,100791.69
2018-11-11T19:47:53.422Z,100796.87
2018-11-11T19:50:23.676Z,100806.59
2018-11-11T19:52:53.647Z,100799.19
2018-11-11T19:55:23.326Z,100804.72
2018-11-11T19:57:52.322Z,100804.62
2018-11-11T20:00:23.561Z,100808.04
2018-11-11T20:02:53.223Z,100814.95
2018-11-11T20:05:22.569Z,100813.73
2018-11-11T20:07:52.882Z,100811.56
2018-11-11T20:10:22.656Z,100812.11
2018-11-11T20:12:51.606Z,100807.86
2018-11-11T20:15:22.203Z,100807.38
2018-11-11T20:17:51.286Z,100803.13
2018-11-11T20:20:22.466Z,100810.36
2018-11-11T20:22:51.514Z,100812.18
2018-11-11T20:25:21.200Z,100819.22
2018-11-11T20:27:50.160Z,100818.14
2018-11-11T20:30:21.675Z,100816.80
2018-11-11T20:32:50.734Z,100818.31
2018-11-11T20:35:21.138Z,100820.55
2018-11-11T20:37:50.143Z,100819.00
2018-11-11T20:40:20.558Z,100819.53
2018-11-11T20:42:50.000Z,100815.56
2018-11-11T20:45:20.354Z,100811.92
2018-11-11T20:47:50.019Z,100806.86
2018-11-11T20:50:20.231Z,100813.18
2018-11-11T20:52:50.833Z,100817.19
2018-11-11T20:55:20.333Z,100814.16
2018-11-11T20:57:49.267Z,100813.42
2018-11-11T21:00:19.747Z,100816.39
2018-11-11T21:02:48.763Z,100814.00
2018-11-11T21:05:19.329Z,100815.22
2018-11-11T21:07:48.410Z,100814.56
2018-11-11T21:10:18.728Z,100811.04
2018-11-11T21:12:47.710Z,100807.64
2018-11-11T21:15:18.131Z,100807.55
2018-11-11T21:17:47.504Z,100805.61
2018-11-11T21:20:18.951Z,100809.25
2018-11-11T21:22:47.897Z,100808.89
2018-11-11T21:25:16.927Z,100812.16
2018-11-11T21:27:46.820Z,100817.02
2018-11-11T21:30:17.264Z,100822.39
2018-11-11T21:32:46.630Z,100831.00
2018-11-11T21:35:15.597Z,100827.84
2018-11-11T21:37:44.826Z,100823.22
2018-11-11T21:40:19.666Z,100827.73
2018-11-11T21:42:49.294Z,100830.40
2018-11-11T21:45:19.539Z,100831.48
2018-11-11T21:47:48.630Z,100826.90
2018-11-11T21:50:18.998Z,100837.44
2018-11-11T21:52:54.773Z,100835.38
2018-11-11T21:55:23.737Z,100839.52
2018-11-11T21:57:52.693Z,100836.72
2018-11-11T22:00:21.671Z,100836.87
2018-11-11T22:02:50.745Z,100836.48
2018-11-11T22:05:19.813Z,100839.05
2018-11-11T22:07:48.768Z,100836.86
2018-11-11T22:10:17.810Z,100840.61
2018-11-11T22:12:46.768Z,100851.66
2018-11-11T22:15:16.651Z,100850.19
2018-11-11T22:17:45.588Z,100850.30
2018-11-11T22:20:14.564Z,100849.20
2018-11-11T22:22:43.574Z,100859.05
2018-11-11T22:25:12.586Z,100859.27
2018-11-11T22:27:41.566Z,100850.80
2018-11-11T22:30:11.911Z,100858.20
2018-11-11T22:32:40.990Z,100854.80
2018-11-11T22:35:11.186Z,100850.66
2018-11-11T22:37:40.287Z,100854.41
2018-11-11T22:40:11.379Z,100854.52
2018-11-11T22:42:40.430Z,100859.48
2018-11-11T22:45:12.154Z,100861.92
2018-11-11T22:47:41.192Z,100862.52
2018-11-11T22:50:12.519Z,100857.92
2018-11-11T22:52:41.547Z,100861.56
2018-11-11T22:55:11.391Z,100859.97
2018-11-11T22:57:40.810Z,100850.75
2018-11-11T23:00:16.303Z,100854.38
2018-11-11T23:02:45.413Z,100855.86
2018-11-11T23:05:14.813Z,100855.98
2018-11-11T23:07:43.746Z,100859.09
2018-11-11T23:10:12.760Z,100858.98
2018-11-11T23:12:41.735Z,100855.58
2018-11-11T23:15:12.079Z,100862.97
2018-11-11T23:17:41.050Z,100864.30
2018-11-11T23:20:11.724Z,100867.20
2018-11-11T23:22:41.097Z,100864.42
2018-11-11T23:25:11.842Z,100866.83
2018-11-11T23:27:40.891Z,100877.00
2018-11-11T23:30:16.184Z,100878.08
2018-11-11T23:32:45.526Z,100875.41
2018-11-11T23:35:14.481Z,100882.70
2018-11-11T23:37:43.862Z,100880.03
2018-11-11T23:40:14.101Z,100875.37
2018-11-11T23:42:43.854Z,100889.91
2018-11-11T23:45:12.805Z,100886.39
2018-11-11T23:47:41.852Z,100879.25
2018-11-11T23:50:13.528Z,100883.46
2018-11-11T23:52:43.325Z,100871.73
2018-11-11T23:55:13.785Z,100879.72
2018-11-11T23:57:42.714Z,100881.39
